sensor_id;sensor_type;location;lat;lon;timestamp;temperature;humidity
45137;DHT22;30894;51.740;19.498;2023-11-18T00:01:49;2.30;99.90
45137;DHT22;30894;51.740;19.498;2023-11-18T00:04:19;3.00;99.90
45137;DHT22;30894;51.740;19.498;2023-11-18T00:06:47;3.00;99.90
45137;DHT22;30894;51.740;19.498;2023-11-18T00:09:14;2.30;99.90
45137;DHT22;30894;51.740;19.498;2023-11-18T00:11:41;2.30;99.90
45137;DHT22;30894;51.740;19.498;2023-11-18T00:14:09;2.50;99.90
45137;DHT22;30894;51.740;19.498;2023-11-18T00:16:38;2.30;99.90
45137;DHT22;30894;51.740;19.498;2023-11-18T00:19:07;2.50;99.90
45137;DHT22;30894;51.740;19.498;2023-11-18T00:21:35;3.00;99.90
45137;DHT22;30894;51.740;19.498;2023-11-18T00:24:03;2.80;99.90
45137;DHT22;30894;51.740;19.498;2023-11-18T00:26:31;2.30;99.90
45137;DHT22;30894;51.740;19.498;2023-11-18T00:29:00;2.40;99.90
45137;DHT22;30894;51.740;19.498;2023-11-18T00:31:29;2.90;99.90
45137;DHT22;30894;51.740;19.498;2023-11-18T00:33:56;2.30;99.90
45137;DHT22;30894;51.740;19.498;2023-11-18T00:36:22;2.40;99.90
45137;DHT22;30894;51.740;19.498;2023-11-18T00:38:50;2.40;99.90
45137;DHT22;30894;51.740;19.498;2023-11-18T00:41:20;2.30;99.90
45137;DHT22;30894;51.740;19.498;2023-11-18T00:43:48;2.30;99.90
45137;DHT22;30894;51.740;19.498;2023-11-18T00:46:23;2.10;99.90
45137;DHT22;30894;51.740;19.498;2023-11-18T00:48:53;3.10;99.90
45137;DHT22;30894;51.740;19.498;2023-11-18T00:51:19;2.30;99.90
45137;DHT22;30894;51.740;19.498;2023-11-18T00:53:49;2.30;99.90
45137;DHT22;30894;51.740;19.498;2023-11-18T00:56:17;2.30;99.90
45137;DHT22;30894;51.740;19.498;2023-11-18T00:59:04;2.30;99.90
45137;DHT22;30894;51.740;19.498;2023-11-18T01:01:32;1.80;99.90
45137;DHT22;30894;51.740;19.498;2023-11-18T01:04:10;2.30;99.90
45137;DHT22;30894;51.740;19.498;2023-11-18T01:06:39;2.30;99.90
45137;DHT22;30894;51.740;19.498;2023-11-18T01:09:09;2.40;99.90
45137;DHT22;30894;51.740;19.498;2023-11-18T01:11:36;2.30;99.90
45137;DHT22;30894;51.740;19.498;2023-11-18T01:14:03;2.20;99.90
45137;DHT22;30894;51.740;19.498;2023-11-18T01:16:31;2.40;99.90
45137;DHT22;30894;51.740;19.498;2023-11-18T01:18:57;2.30;99.90
45137;DHT22;30894;51.740;19.498;2023-11-18T01:21:25;2.30;99.90
45137;DHT22;30894;51.740;19.498;2023-11-18T01:23:54;2.40;99.90
45137;DHT22;30894;51.740;19.498;2023-11-18T01:26:20;2.40;99.90
45137;DHT22;30894;51.740;19.498;2023-11-18T01:28:55;2.40;99.90
45137;DHT22;30894;51.740;19.498;2023-11-18T01:31:22;2.40;99.90
45137;DHT22;30894;51.740;19.498;2023-11-18T01:33:52;2.50;99.90
45137;DHT22;30894;51.740;19.498;2023-11-18T01:36:24;2.40;99.90
45137;DHT22;30894;51.740;19.498;2023-11-18T01:38:55;2.40;99.90
45137;DHT22;30894;51.740;19.498;2023-11-18T01:41:21;2.40;99.90
45137;DHT22;30894;51.740;19.498;2023-11-18T01:43:49;2.40;99.90
45137;DHT22;30894;51.740;19.498;2023-11-18T01:46:20;2.40;99.90
45137;DHT22;30894;51.740;19.498;2023-11-18T01:48:50;2.50;99.90
45137;DHT22;30894;51.740;19.498;2023-11-18T01:51:19;2.10;99.90
45137;DHT22;30894;51.740;19.498;2023-11-18T01:53:52;2.00;99.90
45137;DHT22;30894;51.740;19.498;2023-11-18T01:56:22;2.50;99.90
45137;DHT22;30894;51.740;19.498;2023-11-18T01:58:52;2.50;99.90
45137;DHT22;30894;51.740;19.498;2023-11-18T02:03:54;2.50;99.90
45137;DHT22;30894;51.740;19.498;2023-11-18T02:06:23;2.60;99.90
45137;DHT22;30894;51.740;19.498;2023-11-18T02:08:50;2.60;99.90
45137;DHT22;30894;51.740;19.498;2023-11-18T02:11:28;2.60;99.90
45137;DHT22;30894;51.740;19.498;2023-11-18T02:14:00;2.60;99.90
45137;DHT22;30894;51.740;19.498;2023-11-18T02:16:36;2.60;99.90
45137;DHT22;30894;51.740;19.498;2023-11-18T02:19:09;2.60;99.90
45137;DHT22;30894;51.740;19.498;2023-11-18T02:21:48;2.60;99.90
45137;DHT22;30894;51.740;19.498;2023-11-18T02:24:29;2.60;99.90
45137;DHT22;30894;51.740;19.498;2023-11-18T02:27:00;2.60;99.90
45137;DHT22;30894;51.740;19.498;2023-11-18T02:29:32;2.60;99.90
45137;DHT22;30894;51.740;19.498;2023-11-18T02:35:10;2.50;99.90
45137;DHT22;30894;51.740;19.498;2023-11-18T02:37:40;2.50;99.90
45137;DHT22;30894;51.740;19.498;2023-11-18T02:40:14;2.50;99.90
45137;DHT22;30894;51.740;19.498;2023-11-18T02:42:45;2.50;99.90
45137;DHT22;30894;51.740;19.498;2023-11-18T02:45:16;2.40;99.90
45137;DHT22;30894;51.740;19.498;2023-11-18T02:47:47;2.50;99.90
45137;DHT22;30894;51.740;19.498;2023-11-18T02:50:14;2.40;99.90
45137;DHT22;30894;51.740;19.498;2023-11-18T02:52:45;2.40;99.90
45137;DHT22;30894;51.740;19.498;2023-11-18T02:55:14;2.40;99.90
45137;DHT22;30894;51.740;19.498;2023-11-18T02:57:41;2.40;99.90
45137;DHT22;30894;51.740;19.498;2023-11-18T03:00:13;2.30;99.90
45137;DHT22;30894;51.740;19.498;2023-11-18T03:02:50;2.80;99.90
45137;DHT22;30894;51.740;19.498;2023-11-18T03:05:18;2.20;99.90
45137;DHT22;30894;51.740;19.498;2023-11-18T03:07:50;2.20;99.90
45137;DHT22;30894;51.740;19.498;2023-11-18T03:10:21;2.20;99.90
45137;DHT22;30894;51.740;19.498;2023-11-18T03:12:49;2.10;99.90
45137;DHT22;30894;51.740;19.498;2023-11-18T03:15:18;2.10;99.90
45137;DHT22;30894;51.740;19.498;2023-11-18T03:17:47;2.10;99.90
45137;DHT22;30894;51.740;19.498;2023-11-18T03:20:15;2.10;99.90
45137;DHT22;30894;51.740;19.498;2023-11-18T03:22:43;2.20;99.90
45137;DHT22;30894;51.740;19.498;2023-11-18T03:25:14;2.00;99.90
45137;DHT22;30894;51.740;19.498;2023-11-18T03:27:41;1.90;99.90
45137;DHT22;30894;51.740;19.498;2023-11-18T03:30:07;2.00;99.90
45137;DHT22;30894;51.740;19.498;2023-11-18T03:32:36;1.90;99.90
45137;DHT22;30894;51.740;19.498;2023-11-18T03:35:04;1.90;99.90
45137;DHT22;30894;51.740;19.498;2023-11-18T03:37:41;1.90;99.90
45137;DHT22;30894;51.740;19.498;2023-11-18T03:40:17;1.90;99.90
45137;DHT22;30894;51.740;19.498;2023-11-18T03:42:43;1.90;99.90
45137;DHT22;30894;51.740;19.498;2023-11-18T03:45:13;1.70;99.90
45137;DHT22;30894;51.740;19.498;2023-11-18T03:47:41;1.70;99.90
45137;DHT22;30894;51.740;19.498;2023-11-18T03:50:07;1.70;99.90
45137;DHT22;30894;51.740;19.498;2023-11-18T03:52:37;1.60;99.90
45137;DHT22;30894;51.740;19.498;2023-11-18T03:55:04;1.60;99.90
45137;DHT22;30894;51.740;19.498;2023-11-18T03:57:31;1.60;99.90
45137;DHT22;30894;51.740;19.498;2023-11-18T03:59:57;1.10;99.90
45137;DHT22;30894;51.740;19.498;2023-11-18T04:02:24;1.60;99.90
45137;DHT22;30894;51.740;19.498;2023-11-18T04:04:50;1.60;99.90
45137;DHT22;30894;51.740;19.498;2023-11-18T04:07:17;1.50;99.90
45137;DHT22;30894;51.740;19.498;2023-11-18T04:09:43;1.60;99.90
45137;DHT22;30894;51.740;19.498;2023-11-18T04:12:10;1.50;99.90
45137;DHT22;30894;51.740;19.498;2023-11-18T04:14:37;1.50;99.90
45137;DHT22;30894;51.740;19.498;2023-11-18T04:17:03;1.50;99.90
45137;DHT22;30894;51.740;19.498;2023-11-18T04:19:29;1.50;99.90
45137;DHT22;30894;51.740;19.498;2023-11-18T04:21:56;1.50;99.90
45137;DHT22;30894;51.740;19.498;2023-11-18T04:24:24;1.90;99.90
45137;DHT22;30894;51.740;19.498;2023-11-18T04:26:50;1.40;99.90
45137;DHT22;30894;51.740;19.498;2023-11-18T04:29:16;1.40;99.90
45137;DHT22;30894;51.740;19.498;2023-11-18T04:31:44;1.40;99.90
45137;DHT22;30894;51.740;19.498;2023-11-18T04:34:12;1.40;99.90
45137;DHT22;30894;51.740;19.498;2023-11-18T04:36:41;1.40;99.90
45137;DHT22;30894;51.740;19.498;2023-11-18T04:39:11;1.30;99.90
45137;DHT22;30894;51.740;19.498;2023-11-18T04:41:38;1.30;99.90
45137;DHT22;30894;51.740;19.498;2023-11-18T04:44:07;1.30;99.90
45137;DHT22;30894;51.740;19.498;2023-11-18T04:46:33;1.40;99.90
45137;DHT22;30894;51.740;19.498;2023-11-18T04:49:03;1.20;99.90
45137;DHT22;30894;51.740;19.498;2023-11-18T04:51:29;1.20;99.90
45137;DHT22;30894;51.740;19.498;2023-11-18T04:53:55;1.20;99.90
45137;DHT22;30894;51.740;19.498;2023-11-18T04:56:24;1.70;99.90
45137;DHT22;30894;51.740;19.498;2023-11-18T04:58:51;1.10;99.90
45137;DHT22;30894;51.740;19.498;2023-11-18T05:01:18;1.00;99.90
45137;DHT22;30894;51.740;19.498;2023-11-18T05:03:45;1.00;99.90
45137;DHT22;30894;51.740;19.498;2023-11-18T05:06:19;1.00;99.90
45137;DHT22;30894;51.740;19.498;2023-11-18T05:08:48;1.00;99.90
45137;DHT22;30894;51.740;19.498;2023-11-18T05:11:15;1.00;99.90
45137;DHT22;30894;51.740;19.498;2023-11-18T05:13:42;1.00;99.90
45137;DHT22;30894;51.740;19.498;2023-11-18T05:16:09;0.90;99.90
45137;DHT22;30894;51.740;19.498;2023-11-18T05:18:42;0.90;99.90
45137;DHT22;30894;51.740;19.498;2023-11-18T05:21:09;0.90;99.90
45137;DHT22;30894;51.740;19.498;2023-11-18T05:23:36;0.90;99.90
45137;DHT22;30894;51.740;19.498;2023-11-18T05:26:04;0.90;99.90
45137;DHT22;30894;51.740;19.498;2023-11-18T05:28:34;0.80;99.90
45137;DHT22;30894;51.740;19.498;2023-11-18T05:31:01;0.80;99.90
45137;DHT22;30894;51.740;19.498;2023-11-18T05:33:28;0.80;99.90
45137;DHT22;30894;51.740;19.498;2023-11-18T05:35:56;0.80;99.90
45137;DHT22;30894;51.740;19.498;2023-11-18T05:38:25;0.80;99.90
45137;DHT22;30894;51.740;19.498;2023-11-18T05:40:54;0.70;99.90
45137;DHT22;30894;51.740;19.498;2023-11-18T05:43:29;0.70;99.90
45137;DHT22;30894;51.740;19.498;2023-11-18T05:46:07;0.60;99.90
45137;DHT22;30894;51.740;19.498;2023-11-18T05:48:44;0.60;99.90
45137;DHT22;30894;51.740;19.498;2023-11-18T05:51:12;0.60;99.90
45137;DHT22;30894;51.740;19.498;2023-11-18T05:53:43;0.60;99.90
45137;DHT22;30894;51.740;19.498;2023-11-18T05:56:13;0.50;99.90
45137;DHT22;30894;51.740;19.498;2023-11-18T05:58:43;0.60;99.90
45137;DHT22;30894;51.740;19.498;2023-11-18T06:01:12;0.50;99.90
45137;DHT22;30894;51.740;19.498;2023-11-18T06:03:41;0.70;99.90
45137;DHT22;30894;51.740;19.498;2023-11-18T06:06:11;0.50;99.90
45137;DHT22;30894;51.740;19.498;2023-11-18T06:08:40;0.50;99.90
45137;DHT22;30894;51.740;19.498;2023-11-18T06:11:16;0.40;99.90
45137;DHT22;30894;51.740;19.498;2023-11-18T06:13:48;0.40;99.90
45137;DHT22;30894;51.740;19.498;2023-11-18T06:16:21;0.50;99.90
45137;DHT22;30894;51.740;19.498;2023-11-18T06:18:50;0.40;99.90
45137;DHT22;30894;51.740;19.498;2023-11-18T06:21:23;0.30;99.90
45137;DHT22;30894;51.740;19.498;2023-11-18T06:23:52;1.20;99.90
45137;DHT22;30894;51.740;19.498;2023-11-18T06:26:21;0.30;99.90
45137;DHT22;30894;51.740;19.498;2023-11-18T06:28:48;0.40;99.90
45137;DHT22;30894;51.740;19.498;2023-11-18T06:31:15;0.30;99.90
45137;DHT22;30894;51.740;19.498;2023-11-18T06:33:42;0.30;99.90
45137;DHT22;30894;51.740;19.498;2023-11-18T06:38:39;0.40;99.90
45137;DHT22;30894;51.740;19.498;2023-11-18T06:41:13;0.20;99.90
45137;DHT22;30894;51.740;19.498;2023-11-18T06:43:41;0.50;99.90
45137;DHT22;30894;51.740;19.498;2023-11-18T06:46:20;0.50;99.90
45137;DHT22;30894;51.740;19.498;2023-11-18T06:49:00;0.50;99.90
45137;DHT22;30894;51.740;19.498;2023-11-18T06:51:34;0.50;99.90
45137;DHT22;30894;51.740;19.498;2023-11-18T06:54:01;0.60;99.90
45137;DHT22;30894;51.740;19.498;2023-11-18T06:56:39;0.60;99.90
45137;DHT22;30894;51.740;19.498;2023-11-18T06:59:11;0.70;99.90
45137;DHT22;30894;51.740;19.498;2023-11-18T07:01:40;0.70;99.90
45137;DHT22;30894;51.740;19.498;2023-11-18T07:04:07;0.70;99.90
45137;DHT22;30894;51.740;19.498;2023-11-18T07:06:38;0.70;99.90
45137;DHT22;30894;51.740;19.498;2023-11-18T07:09:05;0.70;99.90
45137;DHT22;30894;51.740;19.498;2023-11-18T07:11:42;0.80;99.90
45137;DHT22;30894;51.740;19.498;2023-11-18T07:14:09;0.80;99.90
45137;DHT22;30894;51.740;19.498;2023-11-18T07:16:40;0.80;99.90
45137;DHT22;30894;51.740;19.498;2023-11-18T07:19:07;0.80;99.90
45137;DHT22;30894;51.740;19.498;2023-11-18T07:21:34;0.80;99.90
45137;DHT22;30894;51.740;19.498;2023-11-18T07:24:00;0.80;99.90
45137;DHT22;30894;51.740;19.498;2023-11-18T07:26:28;0.90;99.90
45137;DHT22;30894;51.740;19.498;2023-11-18T07:28:55;0.80;99.90
45137;DHT22;30894;51.740;19.498;2023-11-18T07:31:23;1.00;99.90
45137;DHT22;30894;51.740;19.498;2023-11-18T07:33:51;0.80;99.90
45137;DHT22;30894;51.740;19.498;2023-11-18T07:36:19;0.80;99.90
45137;DHT22;30894;51.740;19.498;2023-11-18T07:38:46;0.80;99.90
45137;DHT22;30894;51.740;19.498;2023-11-18T07:41:13;0.80;99.90
45137;DHT22;30894;51.740;19.498;2023-11-18T07:43:52;0.90;99.90
45137;DHT22;30894;51.740;19.498;2023-11-18T07:46:22;0.90;99.90
45137;DHT22;30894;51.740;19.498;2023-11-18T07:48:50;0.90;99.90
45137;DHT22;30894;51.740;19.498;2023-11-18T07:51:19;0.90;99.90
45137;DHT22;30894;51.740;19.498;2023-11-18T07:53:50;1.00;99.90
45137;DHT22;30894;51.740;19.498;2023-11-18T07:56:17;1.50;99.90
45137;DHT22;30894;51.740;19.498;2023-11-18T07:58:43;1.00;99.90
45137;DHT22;30894;51.740;19.498;2023-11-18T08:01:14;1.00;99.90
45137;DHT22;30894;51.740;19.498;2023-11-18T08:03:43;0.50;99.90
45137;DHT22;30894;51.740;19.498;2023-11-18T08:06:12;1.10;99.90
45137;DHT22;30894;51.740;19.498;2023-11-18T08:08:39;1.20;99.90
45137;DHT22;30894;51.740;19.498;2023-11-18T08:11:10;1.20;99.90
45137;DHT22;30894;51.740;19.498;2023-11-18T08:13:36;1.20;99.90
45137;DHT22;30894;51.740;19.498;2023-11-18T08:16:03;1.30;99.90
45137;DHT22;30894;51.740;19.498;2023-11-18T08:18:29;1.30;99.90
45137;DHT22;30894;51.740;19.498;2023-11-18T08:21:00;1.30;99.90
45137;DHT22;30894;51.740;19.498;2023-11-18T08:23:30;1.30;99.90
45137;DHT22;30894;51.740;19.498;2023-11-18T08:25:58;1.30;99.90
45137;DHT22;30894;51.740;19.498;2023-11-18T08:28:24;1.20;99.90
45137;DHT22;30894;51.740;19.498;2023-11-18T08:30:54;1.20;99.90
45137;DHT22;30894;51.740;19.498;2023-11-18T08:33:21;1.20;99.90
45137;DHT22;30894;51.740;19.498;2023-11-18T08:35:50;1.30;99.90
45137;DHT22;30894;51.740;19.498;2023-11-18T08:38:17;1.30;99.90
45137;DHT22;30894;51.740;19.498;2023-11-18T08:40:44;1.30;99.90
45137;DHT22;30894;51.740;19.498;2023-11-18T08:43:11;1.40;99.90
45137;DHT22;30894;51.740;19.498;2023-11-18T08:45:41;1.40;99.90
45137;DHT22;30894;51.740;19.498;2023-11-18T08:48:09;1.40;99.90
45137;DHT22;30894;51.740;19.498;2023-11-18T08:50:37;1.50;99.90
45137;DHT22;30894;51.740;19.498;2023-11-18T08:53:05;2.30;99.90
45137;DHT22;30894;51.740;19.498;2023-11-18T08:55:36;1.50;99.90
45137;DHT22;30894;51.740;19.498;2023-11-18T08:58:08;1.50;99.90
45137;DHT22;30894;51.740;19.498;2023-11-18T09:00:51;1.50;99.90
45137;DHT22;30894;51.740;19.498;2023-11-18T09:03:19;1.50;99.90
45137;DHT22;30894;51.740;19.498;2023-11-18T09:05:59;1.50;99.90
45137;DHT22;30894;51.740;19.498;2023-11-18T09:08:37;1.50;99.90
45137;DHT22;30894;51.740;19.498;2023-11-18T09:11:09;1.50;99.90
45137;DHT22;30894;51.740;19.498;2023-11-18T09:13:47;1.50;99.90
45137;DHT22;30894;51.740;19.498;2023-11-18T09:16:17;1.80;99.90
45137;DHT22;30894;51.740;19.498;2023-11-18T09:18:46;1.80;99.90
45137;DHT22;30894;51.740;19.498;2023-11-18T09:21:13;1.80;99.90
45137;DHT22;30894;51.740;19.498;2023-11-18T09:23:41;1.70;99.90
45137;DHT22;30894;51.740;19.498;2023-11-18T09:26:09;2.10;99.90
45137;DHT22;30894;51.740;19.498;2023-11-18T09:28:39;2.40;99.90
45137;DHT22;30894;51.740;19.498;2023-11-18T09:31:07;2.50;99.90
45137;DHT22;30894;51.740;19.498;2023-11-18T09:33:41;2.70;99.90
45137;DHT22;30894;51.740;19.498;2023-11-18T09:36:18;3.00;99.90
45137;DHT22;30894;51.740;19.498;2023-11-18T09:38:45;2.80;99.90
45137;DHT22;30894;51.740;19.498;2023-11-18T09:41:22;2.80;99.90
45137;DHT22;30894;51.740;19.498;2023-11-18T09:43:53;2.80;99.90
45137;DHT22;30894;51.740;19.498;2023-11-18T09:46:28;2.80;99.90
45137;DHT22;30894;51.740;19.498;2023-11-18T09:52:03;3.10;99.90
45137;DHT22;30894;51.740;19.498;2023-11-18T09:54:39;3.10;99.90
45137;DHT22;30894;51.740;19.498;2023-11-18T09:57:32;3.20;99.90
45137;DHT22;30894;51.740;19.498;2023-11-18T10:00:07;3.30;99.90
45137;DHT22;30894;51.740;19.498;2023-11-18T10:02:49;3.30;99.90
45137;DHT22;30894;51.740;19.498;2023-11-18T10:05:20;3.30;99.90
45137;DHT22;30894;51.740;19.498;2023-11-18T10:07:52;3.30;99.90
45137;DHT22;30894;51.740;19.498;2023-11-18T10:10:20;3.20;99.90
45137;DHT22;30894;51.740;19.498;2023-11-18T10:12:51;3.20;99.90
45137;DHT22;30894;51.740;19.498;2023-11-18T10:15:24;3.10;99.90
45137;DHT22;30894;51.740;19.498;2023-11-18T10:17:53;3.10;99.90
45137;DHT22;30894;51.740;19.498;2023-11-18T10:20:46;3.10;99.90
45137;DHT22;30894;51.740;19.498;2023-11-18T10:23:14;3.00;99.90
45137;DHT22;30894;51.740;19.498;2023-11-18T10:25:48;2.90;99.90
45137;DHT22;30894;51.740;19.498;2023-11-18T10:28:29;2.80;99.90
45137;DHT22;30894;51.740;19.498;2023-11-18T10:31:04;2.70;99.90
45137;DHT22;30894;51.740;19.498;2023-11-18T10:33:37;2.70;99.90
45137;DHT22;30894;51.740;19.498;2023-11-18T10:36:23;2.70;99.90
45137;DHT22;30894;51.740;19.498;2023-11-18T10:38:52;2.70;99.90
45137;DHT22;30894;51.740;19.498;2023-11-18T10:41:22;2.60;99.90
45137;DHT22;30894;51.740;19.498;2023-11-18T10:44:05;2.60;99.90
45137;DHT22;30894;51.740;19.498;2023-11-18T10:46:53;2.50;99.90
45137;DHT22;30894;51.740;19.498;2023-11-18T10:49:23;2.40;99.90
45137;DHT22;30894;51.740;19.498;2023-11-18T10:51:53;2.40;99.90
45137;DHT22;30894;51.740;19.498;2023-11-18T10:54:22;2.30;99.90
45137;DHT22;30894;51.740;19.498;2023-11-18T10:56:52;2.30;99.90
45137;DHT22;30894;51.740;19.498;2023-11-18T10:59:23;2.20;99.90
45137;DHT22;30894;51.740;19.498;2023-11-18T11:01:49;2.20;99.90
45137;DHT22;30894;51.740;19.498;2023-11-18T11:04:16;2.20;99.90
45137;DHT22;30894;51.740;19.498;2023-11-18T11:06:51;2.20;99.90
45137;DHT22;30894;51.740;19.498;2023-11-18T11:09:24;2.20;99.90
45137;DHT22;30894;51.740;19.498;2023-11-18T11:12:00;2.20;99.90
45137;DHT22;30894;51.740;19.498;2023-11-18T11:14:57;2.20;99.90
45137;DHT22;30894;51.740;19.498;2023-11-18T11:17:28;2.10;99.90
45137;DHT22;30894;51.740;19.498;2023-11-18T11:20:04;1.60;99.90
45137;DHT22;30894;51.740;19.498;2023-11-18T11:23:10;2.20;99.90
45137;DHT22;30894;51.740;19.498;2023-11-18T11:26:07;2.00;99.90
45137;DHT22;30894;51.740;19.498;2023-11-18T11:31:38;2.00;99.90
45137;DHT22;30894;51.740;19.498;2023-11-18T11:34:06;2.00;99.90
45137;DHT22;30894;51.740;19.498;2023-11-18T11:36:44;2.10;99.90
45137;DHT22;30894;51.740;19.498;2023-11-18T11:39:13;2.60;99.90
45137;DHT22;30894;51.740;19.498;2023-11-18T11:41:50;2.00;99.90
45137;DHT22;30894;51.740;19.498;2023-11-18T11:44:17;2.00;99.90
45137;DHT22;30894;51.740;19.498;2023-11-18T11:46:48;1.90;99.90
45137;DHT22;30894;51.740;19.498;2023-11-18T11:49:23;1.90;99.90
45137;DHT22;30894;51.740;19.498;2023-11-18T11:52:04;1.90;99.90
45137;DHT22;30894;51.740;19.498;2023-11-18T11:54:43;1.90;99.90
45137;DHT22;30894;51.740;19.498;2023-11-18T11:57:39;1.90;99.90
45137;DHT22;30894;51.740;19.498;2023-11-18T12:00:10;2.10;99.90
45137;DHT22;30894;51.740;19.498;2023-11-18T12:02:49;1.90;99.90
45137;DHT22;30894;51.740;19.498;2023-11-18T12:05:17;2.00;99.90
45137;DHT22;30894;51.740;19.498;2023-11-18T12:07:53;2.00;99.90
45137;DHT22;30894;51.740;19.498;2023-11-18T12:10:31;2.00;99.90
45137;DHT22;30894;51.740;19.498;2023-11-18T12:13:13;2.10;99.90
45137;DHT22;30894;51.740;19.498;2023-11-18T12:15:53;2.10;99.90
45137;DHT22;30894;51.740;19.498;2023-11-18T12:18:24;2.10;99.90
45137;DHT22;30894;51.740;19.498;2023-11-18T12:21:13;2.10;99.90
45137;DHT22;30894;51.740;19.498;2023-11-18T12:24:20;2.10;99.90
45137;DHT22;30894;51.740;19.498;2023-11-18T12:26:51;2.10;99.90
45137;DHT22;30894;51.740;19.498;2023-11-18T12:29:33;2.10;99.90
45137;DHT22;30894;51.740;19.498;2023-11-18T12:32:01;2.10;99.90
45137;DHT22;30894;51.740;19.498;2023-11-18T12:34:55;2.10;99.90
45137;DHT22;30894;51.740;19.498;2023-11-18T12:40:14;2.10;99.90
45137;DHT22;30894;51.740;19.498;2023-11-18T12:43:03;2.00;99.90
45137;DHT22;30894;51.740;19.498;2023-11-18T12:45:43;1.90;99.90
45137;DHT22;30894;51.740;19.498;2023-11-18T12:48:20;1.90;99.90
45137;DHT22;30894;51.740;19.498;2023-11-18T12:50:55;1.90;99.90
45137;DHT22;30894;51.740;19.498;2023-11-18T12:53:25;1.80;99.90
45137;DHT22;30894;51.740;19.498;2023-11-18T12:55:53;1.80;99.90
45137;DHT22;30894;51.740;19.498;2023-11-18T12:58:20;2.00;99.90
45137;DHT22;30894;51.740;19.498;2023-11-18T13:00:52;1.80;99.90
45137;DHT22;30894;51.740;19.498;2023-11-18T13:03:22;1.70;99.90
45137;DHT22;30894;51.740;19.498;2023-11-18T13:05:50;1.70;99.90
45137;DHT22;30894;51.740;19.498;2023-11-18T13:08:18;1.70;99.90
45137;DHT22;30894;51.740;19.498;2023-11-18T13:10:57;1.60;99.90
45137;DHT22;30894;51.740;19.498;2023-11-18T13:13:29;1.50;99.90
45137;DHT22;30894;51.740;19.498;2023-11-18T13:15:56;1.40;99.90
45137;DHT22;30894;51.740;19.498;2023-11-18T13:18:24;1.30;99.90
45137;DHT22;30894;51.740;19.498;2023-11-18T13:20:57;1.30;99.90
45137;DHT22;30894;51.740;19.498;2023-11-18T13:23:27;1.30;99.90
45137;DHT22;30894;51.740;19.498;2023-11-18T13:25:55;1.30;99.90
45137;DHT22;30894;51.740;19.498;2023-11-18T13:28:26;1.30;99.90
45137;DHT22;30894;51.740;19.498;2023-11-18T13:30:54;1.20;99.90
45137;DHT22;30894;51.740;19.498;2023-11-18T13:33:21;1.90;99.90
45137;DHT22;30894;51.740;19.498;2023-11-18T13:35:49;1.20;99.90
45137;DHT22;30894;51.740;19.498;2023-11-18T13:38:16;1.20;99.90
45137;DHT22;30894;51.740;19.498;2023-11-18T13:40:48;1.10;99.90
45137;DHT22;30894;51.740;19.498;2023-11-18T13:43:15;2.00;99.90
45137;DHT22;30894;51.740;19.498;2023-11-18T13:45:49;1.60;99.90
45137;DHT22;30894;51.740;19.498;2023-11-18T13:48:18;1.10;99.90
45137;DHT22;30894;51.740;19.498;2023-11-18T13:50:50;1.00;99.90
45137;DHT22;30894;51.740;19.498;2023-11-18T13:53:18;1.20;99.90
45137;DHT22;30894;51.740;19.498;2023-11-18T13:55:45;1.00;99.90
45137;DHT22;30894;51.740;19.498;2023-11-18T13:58:14;1.00;99.90
45137;DHT22;30894;51.740;19.498;2023-11-18T14:00:41;1.00;99.90
45137;DHT22;30894;51.740;19.498;2023-11-18T14:03:09;1.00;99.90
45137;DHT22;30894;51.740;19.498;2023-11-18T14:05:39;1.00;99.90
45137;DHT22;30894;51.740;19.498;2023-11-18T14:08:05;1.00;99.90
45137;DHT22;30894;51.740;19.498;2023-11-18T14:10:36;1.00;99.90
45137;DHT22;30894;51.740;19.498;2023-11-18T14:13:09;0.70;99.90
45137;DHT22;30894;51.740;19.498;2023-11-18T14:15:38;0.90;99.90
45137;DHT22;30894;51.740;19.498;2023-11-18T14:18:09;1.70;99.90
45137;DHT22;30894;51.740;19.498;2023-11-18T14:20:37;1.70;99.90
45137;DHT22;30894;51.740;19.498;2023-11-18T14:23:03;0.90;99.90
45137;DHT22;30894;51.740;19.498;2023-11-18T14:25:35;0.90;99.90
45137;DHT22;30894;51.740;19.498;2023-11-18T14:28:07;0.90;99.90
45137;DHT22;30894;51.740;19.498;2023-11-18T14:30:35;0.90;99.90
45137;DHT22;30894;51.740;19.498;2023-11-18T14:33:01;0.90;99.90
45137;DHT22;30894;51.740;19.498;2023-11-18T14:35:30;0.80;99.90
45137;DHT22;30894;51.740;19.498;2023-11-18T14:37:58;0.80;99.90
45137;DHT22;30894;51.740;19.498;2023-11-18T14:40:25;1.20;99.90
45137;DHT22;30894;51.740;19.498;2023-11-18T14:42:51;0.90;99.90
45137;DHT22;30894;51.740;19.498;2023-11-18T14:45:20;0.80;99.90
45137;DHT22;30894;51.740;19.498;2023-11-18T14:47:50;0.80;99.90
45137;DHT22;30894;51.740;19.498;2023-11-18T14:50:20;0.90;99.90
45137;DHT22;30894;51.740;19.498;2023-11-18T14:52:52;1.00;99.90
45137;DHT22;30894;51.740;19.498;2023-11-18T14:55:29;0.80;99.90
45137;DHT22;30894;51.740;19.498;2023-11-18T14:57:57;0.80;99.90
45137;DHT22;30894;51.740;19.498;2023-11-18T15:00:23;0.80;99.90
45137;DHT22;30894;51.740;19.498;2023-11-18T15:02:54;1.60;99.90
45137;DHT22;30894;51.740;19.498;2023-11-18T15:05:23;0.60;99.90
45137;DHT22;30894;51.740;19.498;2023-11-18T15:07:54;0.70;99.90
45137;DHT22;30894;51.740;19.498;2023-11-18T15:10:27;1.40;99.90
45137;DHT22;30894;51.740;19.498;2023-11-18T15:12:58;0.70;99.90
45137;DHT22;30894;51.740;19.498;2023-11-18T15:15:28;0.70;99.90
45137;DHT22;30894;51.740;19.498;2023-11-18T15:18:05;1.30;99.90
45137;DHT22;30894;51.740;19.498;2023-11-18T15:20:37;0.70;99.90
45137;DHT22;30894;51.740;19.498;2023-11-18T15:23:13;0.70;99.90
45137;DHT22;30894;51.740;19.498;2023-11-18T15:25:40;0.70;99.90
45137;DHT22;30894;51.740;19.498;2023-11-18T15:28:08;1.20;99.90
45137;DHT22;30894;51.740;19.498;2023-11-18T15:30:36;0.70;99.90
45137;DHT22;30894;51.740;19.498;2023-11-18T15:33:03;0.70;99.90
45137;DHT22;30894;51.740;19.498;2023-11-18T15:35:31;0.60;99.90
45137;DHT22;30894;51.740;19.498;2023-11-18T15:38:02;1.40;99.90
45137;DHT22;30894;51.740;19.498;2023-11-18T15:40:29;0.70;99.90
45137;DHT22;30894;51.740;19.498;2023-11-18T15:42:55;0.70;99.90
45137;DHT22;30894;51.740;19.498;2023-11-18T15:45:22;0.60;99.90
45137;DHT22;30894;51.740;19.498;2023-11-18T15:47:53;0.60;99.90
45137;DHT22;30894;51.740;19.498;2023-11-18T15:50:20;0.70;99.90
45137;DHT22;30894;51.740;19.498;2023-11-18T15:52:49;0.70;99.90
45137;DHT22;30894;51.740;19.498;2023-11-18T15:55:18;0.70;99.90
45137;DHT22;30894;51.740;19.498;2023-11-18T15:57:45;0.70;99.90
45137;DHT22;30894;51.740;19.498;2023-11-18T16:00:26;0.60;99.90
45137;DHT22;30894;51.740;19.498;2023-11-18T16:02:59;0.60;99.90
45137;DHT22;30894;51.740;19.498;2023-11-18T16:05:28;0.70;99.90
45137;DHT22;30894;51.740;19.498;2023-11-18T16:07:58;0.60;99.90
45137;DHT22;30894;51.740;19.498;2023-11-18T16:10:26;0.70;99.90